createdAt,value
2023-06-17T00:01:10.208Z,45.42
2023-06-17T00:03:50.426Z,45.35
2023-06-17T00:06:30.621Z,46.08
2023-06-17T00:09:10.788Z,46.06
2023-06-17T00:11:52.556Z,46.31
2023-06-17T00:14:33.745Z,46.44
2023-06-17T00:17:15.345Z,46.42
2023-06-17T00:19:57.911Z,46.94
2023-06-17T00:22:40.396Z,47.25
2023-06-17T00:25:20.795Z,47.08
2023-06-17T00:28:00.922Z,47.06
2023-06-17T00:30:41.393Z,47.41
2023-06-17T00:33:21.514Z,47.60
2023-06-17T00:36:04.256Z,47.58
2023-06-17T00:38:44.363Z,47.74
2023-06-17T00:41:24.612Z,47.88
2023-06-17T00:44:04.976Z,47.97
2023-06-17T00:46:51.557Z,48.25
2023-06-17T00:49:37.922Z,48.43
2023-06-17T00:52:39.553Z,48.61
2023-06-17T00:55:19.350Z,48.84
2023-06-17T00:58:01.722Z,48.76
2023-06-17T01:00:42.241Z,48.95
2023-06-17T01:03:24.157Z,48.73
2023-06-17T01:06:21.072Z,48.75
2023-06-17T01:09:06.527Z,48.89
2023-06-17T01:11:52.747Z,49.14
2023-06-17T01:14:35.216Z,49.39
2023-06-17T01:17:19.215Z,49.28
2023-06-17T01:20:00.156Z,49.57
2023-06-17T01:22:41.749Z,49.52
2023-06-17T01:25:30.257Z,49.94
2023-06-17T01:28:20.558Z,50.11
2023-06-17T01:31:00.856Z,50.07
2023-06-17T01:33:46.508Z,50.02
2023-06-17T01:36:38.781Z,50.22
2023-06-17T01:39:24.883Z,50.47
2023-06-17T01:42:15.834Z,50.62
2023-06-17T01:44:57.959Z,50.21
2023-06-17T01:47:38.673Z,50.55
2023-06-17T01:50:21.060Z,50.53
2023-06-17T01:53:01.826Z,51.10
2023-06-17T01:55:42.037Z,50.97
2023-06-17T01:58:22.416Z,51.49
2023-06-17T02:01:02.579Z,51.46
2023-06-17T02:03:43.675Z,51.27
2023-06-17T02:06:24.270Z,51.52
2023-06-17T02:09:05.361Z,51.45
2023-06-17T02:11:46.160Z,51.65
2023-06-17T02:14:27.392Z,51.93
2023-06-17T02:17:09.576Z,52.11
2023-06-17T02:19:50.860Z,52.18
2023-06-17T02:22:31.762Z,52.45
2023-06-17T02:25:11.959Z,52.42
2023-06-17T02:27:52.805Z,52.50
2023-06-17T02:30:35.837Z,52.37
2023-06-17T02:33:19.218Z,52.69
2023-06-17T02:36:00.867Z,52.86
2023-06-17T02:38:41.737Z,52.76
2023-06-17T02:41:23.078Z,53.06
2023-06-17T02:44:03.453Z,52.87
2023-06-17T02:46:45.585Z,53.04
2023-06-17T02:49:25.764Z,53.08
2023-06-17T02:52:06.522Z,53.13
2023-06-17T02:54:47.717Z,53.26
2023-06-17T02:57:32.988Z,53.38
2023-06-17T03:00:14.576Z,53.42
2023-06-17T03:02:56.445Z,53.57
2023-06-17T03:05:38.773Z,53.76
2023-06-17T03:08:19.989Z,54.07
2023-06-17T03:11:01.240Z,54.37
2023-06-17T03:13:43.189Z,54.44
2023-06-17T03:16:34.577Z,55.42
2023-06-17T03:19:16.758Z,55.23
2023-06-17T03:21:58.757Z,55.38
2023-06-17T03:24:41.070Z,55.32
2023-06-17T03:27:23.953Z,55.88
2023-06-17T03:30:05.797Z,55.83
2023-06-17T03:32:46.139Z,56.06
2023-06-17T03:35:26.923Z,56.03
2023-06-17T03:38:07.450Z,56.61
2023-06-17T03:40:48.270Z,56.33
2023-06-17T03:43:28.938Z,56.75
2023-06-17T03:46:10.489Z,56.85
2023-06-17T03:48:50.998Z,56.88
2023-06-17T03:51:32.427Z,56.88
2023-06-17T03:54:13.193Z,57.05
2023-06-17T03:56:53.703Z,56.80
2023-06-17T03:59:34.886Z,56.72
2023-06-17T04:02:17.200Z,56.89
2023-06-17T04:04:57.820Z,56.80
2023-06-17T04:07:41.115Z,57.18
2023-06-17T04:10:21.663Z,56.85
2023-06-17T04:13:02.399Z,57.01
2023-06-17T04:15:43.582Z,57.14
2023-06-17T04:18:25.599Z,57.21
2023-06-17T04:21:06.609Z,57.06
2023-06-17T04:23:46.847Z,56.91
2023-06-17T04:26:29.038Z,56.78
2023-06-17T04:29:09.655Z,56.73
2023-06-17T04:31:51.023Z,56.58
2023-06-17T04:34:32.336Z,56.75
2023-06-17T04:37:13.848Z,56.87
2023-06-17T04:39:54.317Z,56.76
2023-06-17T04:42:34.922Z,56.83
2023-06-17T04:45:18.519Z,56.64
2023-06-17T04:48:07.394Z,56.49
2023-06-17T04:50:49.495Z,56.60
2023-06-17T04:53:29.908Z,56.46
2023-06-17T04:56:11.142Z,56.38
2023-06-17T04:58:52.640Z,56.54
2023-06-17T05:01:32.882Z,56.98
2023-06-17T05:04:13.035Z,57.75
2023-06-17T05:06:53.284Z,58.06
2023-06-17T05:09:34.091Z,57.98
2023-06-17T05:12:14.543Z,57.74
2023-06-17T05:14:56.141Z,58.09
2023-06-17T05:17:37.054Z,57.95
2023-06-17T05:20:17.566Z,57.98
2023-06-17T05:22:58.776Z,57.68
2023-06-17T05:25:39.438Z,57.74
2023-06-17T05:28:19.677Z,57.40
2023-06-17T05:31:01.458Z,57.53
2023-06-17T05:33:42.592Z,57.11
2023-06-17T05:36:25.549Z,57.17
2023-06-17T05:39:07.030Z,57.49
2023-06-17T05:41:48.404Z,57.00
2023-06-17T05:44:31.749Z,57.05
2023-06-17T05:47:13.138Z,57.34
2023-06-17T05:49:53.347Z,57.33
2023-06-17T05:52:35.114Z,57.34
2023-06-17T05:55:15.864Z,56.87
2023-06-17T05:57:56.553Z,56.81
2023-06-17T06:00:36.928Z,56.75
2023-06-17T06:03:17.198Z,56.66
2023-06-17T06:05:57.563Z,56.37
2023-06-17T06:08:38.404Z,56.30
2023-06-17T06:11:20.517Z,56.38
2023-06-17T06:14:01.361Z,56.82
2023-06-17T06:16:41.802Z,56.70
2023-06-17T06:19:22.489Z,56.24
2023-06-17T06:22:02.875Z,55.70
2023-06-17T06:24:44.626Z,55.52
2023-06-17T06:27:25.509Z,55.29
2023-06-17T06:30:07.852Z,55.07
2023-06-17T06:32:53.057Z,54.78
2023-06-17T06:35:34.407Z,54.26
2023-06-17T06:38:16.079Z,54.02
2023-06-17T06:40:56.528Z,54.04
2023-06-17T06:43:37.008Z,53.34
2023-06-17T06:46:27.142Z,52.77
2023-06-17T06:49:07.828Z,52.29
2023-06-17T06:51:49.262Z,52.45
2023-06-17T06:54:29.535Z,51.39
2023-06-17T06:57:10.070Z,51.16
2023-06-17T06:59:52.777Z,50.73
2023-06-17T07:02:33.560Z,50.03
2023-06-17T07:05:14.499Z,49.07
2023-06-17T07:08:02.010Z,48.62
2023-06-17T07:10:42.673Z,48.21
2023-06-17T07:13:24.515Z,48.42
2023-06-17T07:16:06.829Z,47.11
2023-06-17T07:18:48.097Z,46.70
2023-06-17T07:21:28.907Z,45.74
2023-06-17T07:24:09.270Z,44.96
2023-06-17T07:26:50.252Z,42.54
2023-06-17T07:29:31.480Z,42.77
2023-06-17T07:32:12.368Z,43.34
2023-06-17T07:34:57.299Z,43.58
2023-06-17T07:37:38.595Z,42.67
2023-06-17T07:40:20.557Z,41.70
2023-06-17T07:43:01.584Z,41.08
2023-06-17T07:45:43.017Z,40.77
2023-06-17T07:48:24.957Z,40.66
2023-06-17T07:51:05.226Z,40.32
2023-06-17T07:53:45.425Z,39.86
2023-06-17T07:56:28.668Z,39.77
2023-06-17T07:59:10.021Z,39.06
2023-06-17T08:01:50.729Z,39.12
2023-06-17T08:04:31.734Z,38.72
2023-06-17T08:07:12.383Z,38.18
2023-06-17T08:09:53.007Z,38.34
2023-06-17T08:12:33.361Z,38.21
2023-06-17T08:15:13.691Z,37.30
2023-06-17T08:17:54.307Z,36.40
2023-06-17T08:20:34.929Z,36.98
2023-06-17T08:23:15.976Z,36.48
2023-06-17T08:25:57.755Z,36.75
2023-06-17T08:28:39.314Z,36.14
2023-06-17T08:31:20.686Z,35.87
2023-06-17T08:34:00.931Z,36.08
2023-06-17T08:36:51.062Z,36.19
2023-06-17T08:39:32.985Z,35.77
2023-06-17T08:42:13.171Z,35.51
2023-06-17T08:44:58.461Z,34.97
2023-06-17T08:47:38.969Z,34.17
2023-06-17T08:50:20.028Z,33.10
2023-06-17T08:53:00.804Z,33.80
2023-06-17T08:55:41.392Z,34.17
2023-06-17T08:58:22.326Z,34.13
2023-06-17T09:01:03.535Z,32.23
2023-06-17T09:03:44.826Z,32.94
2023-06-17T09:06:29.239Z,31.68
2023-06-17T09:09:09.280Z,31.64
2023-06-17T09:11:53.756Z,30.94
2023-06-17T09:14:35.297Z,30.21
2023-06-17T09:17:33.736Z,30.26
2023-06-17T09:20:17.005Z,30.43
2023-06-17T09:22:57.292Z,30.18
2023-06-17T09:25:38.599Z,30.39
2023-06-17T09:28:18.831Z,29.96
2023-06-17T09:31:00.769Z,29.89
2023-06-17T09:33:45.972Z,30.42
2023-06-17T09:36:27.247Z,30.35
2023-06-17T09:39:10.671Z,31.25
2023-06-17T09:41:51.628Z,30.63
2023-06-17T09:44:32.087Z,29.63
2023-06-17T09:47:13.078Z,30.12
2023-06-17T09:49:53.556Z,29.31
2023-06-17T09:52:36.497Z,29.58
2023-06-17T09:55:17.382Z,29.00
2023-06-17T09:58:02.992Z,29.33
2023-06-17T10:00:46.613Z,28.03
2023-06-17T10:03:28.978Z,28.91
2023-06-17T10:06:17.517Z,28.85
2023-06-17T10:08:58.971Z,27.71
2023-06-17T10:11:46.300Z,27.83
2023-06-17T10:14:32.883Z,27.83
2023-06-17T10:17:13.967Z,27.28
2023-06-17T10:19:56.204Z,28.27
2023-06-17T10:22:39.431Z,26.89
2023-06-17T10:25:20.178Z,27.22
2023-06-17T10:28:04.420Z,26.39
2023-06-17T10:30:46.341Z,26.78
2023-06-17T10:33:28.799Z,26.62
2023-06-17T10:36:11.378Z,26.47
2023-06-17T10:39:08.186Z,26.38
2023-06-17T10:41:50.038Z,27.20
2023-06-17T10:44:36.958Z,26.87
2023-06-17T10:47:22.509Z,26.31
2023-06-17T10:50:06.445Z,26.08
2023-06-17T10:52:46.981Z,26.70
2023-06-17T10:55:27.358Z,26.59
2023-06-17T10:58:08.452Z,26.36
2023-06-17T11:01:08.798Z,25.58
2023-06-17T11:03:49.438Z,26.02
2023-06-17T11:06:33.450Z,25.79
2023-06-17T11:09:13.484Z,26.01
2023-06-17T11:11:58.475Z,25.21
2023-06-17T11:14:40.822Z,25.76
2023-06-17T11:17:21.332Z,25.13
2023-06-17T11:20:01.595Z,25.11
2023-06-17T11:22:42.124Z,24.28
2023-06-17T11:25:35.985Z,24.76
2023-06-17T11:28:23.396Z,24.25
2023-06-17T11:31:04.729Z,23.98
2023-06-17T11:33:45.581Z,24.66
2023-06-17T11:36:27.303Z,23.42
2023-06-17T11:39:10.227Z,23.91
2023-06-17T11:42:01.149Z,23.36
2023-06-17T11:44:41.750Z,23.04
2023-06-17T11:47:34.871Z,23.41
2023-06-17T11:50:15.670Z,23.67
2023-06-17T11:52:59.977Z,23.58
2023-06-17T11:55:44.510Z,23.25
2023-06-17T11:58:26.794Z,23.26
2023-06-17T12:01:09.871Z,22.49
2023-06-17T12:03:50.445Z,22.06
2023-06-17T12:06:32.941Z,22.03
2023-06-17T12:09:15.438Z,22.46
2023-06-17T12:11:56.116Z,22.56
2023-06-17T12:14:38.684Z,21.16
2023-06-17T12:17:23.216Z,21.27
2023-06-17T12:20:03.899Z,21.65
2023-06-17T12:22:46.027Z,21.65
2023-06-17T12:25:26.351Z,20.85
2023-06-17T12:28:07.486Z,21.57
2023-06-17T12:30:47.998Z,21.05
2023-06-17T12:33:28.210Z,21.57
2023-06-17T12:36:08.880Z,21.30
2023-06-17T12:38:50.541Z,21.52
2023-06-17T12:41:32.602Z,21.00
2023-06-17T12:44:13.023Z,20.96
2023-06-17T12:46:54.601Z,21.03
2023-06-17T12:49:35.132Z,20.80
2023-06-17T12:52:15.682Z,20.26
2023-06-17T12:55:01.398Z,20.57
2023-06-17T12:57:41.737Z,20.62
2023-06-17T13:00:22.330Z,20.56
2023-06-17T13:03:03.651Z,20.18
2023-06-17T13:05:44.878Z,21.00
2023-06-17T13:08:25.450Z,21.47
2023-06-17T13:11:06.421Z,20.73
2023-06-17T13:13:46.717Z,20.72
2023-06-17T13:16:27.570Z,19.93
2023-06-17T13:19:08.921Z,19.36
2023-06-17T13:21:49.300Z,20.04
2023-06-17T13:24:29.567Z,20.00
2023-06-17T13:27:10.512Z,20.40
2023-06-17T13:29:51.319Z,20.04
2023-06-17T13:32:32.465Z,19.54
2023-06-17T13:35:13.468Z,19.62
2023-06-17T13:37:56.004Z,19.25
2023-06-17T13:40:36.626Z,19.45
2023-06-17T13:43:17.291Z,19.60
2023-06-17T13:45:58.084Z,19.60
2023-06-17T13:48:38.817Z,19.75
2023-06-17T13:51:19.285Z,19.46
2023-06-17T13:54:03.274Z,19.29
2023-06-17T13:56:43.822Z,18.94
2023-06-17T13:59:24.892Z,18.97
2023-06-17T14:02:06.033Z,19.26
2023-06-17T14:04:46.374Z,18.81
2023-06-17T14:07:26.759Z,19.06
2023-06-17T14:10:08.119Z,19.27
2023-06-17T14:12:48.989Z,19.63
2023-06-17T14:15:29.427Z,19.08
2023-06-17T14:18:09.736Z,18.94
2023-06-17T14:20:49.982Z,18.86
2023-06-17T14:23:30.408Z,18.87
2023-06-17T14:26:10.662Z,19.57
2023-06-17T14:28:51.052Z,19.58
2023-06-17T14:31:31.499Z,19.44
2023-06-17T14:34:12.155Z,18.96
2023-06-17T14:36:52.778Z,18.83
2023-06-17T14:39:32.816Z,19.45
2023-06-17T14:42:13.220Z,19.40
2023-06-17T14:44:53.674Z,19.44
2023-06-17T14:47:35.293Z,19.52
2023-06-17T14:50:16.039Z,19.13
2023-06-17T14:52:56.394Z,19.22
2023-06-17T14:55:36.703Z,19.24
2023-06-17T14:58:16.870Z,18.92
2023-06-17T15:00:57.004Z,19.21
2023-06-17T15:03:37.501Z,19.23
2023-06-17T15:06:18.416Z,19.44
2023-06-17T15:09:26.820Z,19.29
2023-06-17T15:12:12.551Z,19.36
2023-06-17T15:14:54.630Z,19.26
2023-06-17T15:17:35.441Z,19.15
2023-06-17T15:20:15.907Z,19.16
2023-06-17T15:22:56.291Z,18.96
2023-06-17T15:25:36.559Z,19.28
2023-06-17T15:28:16.810Z,19.21
2023-06-17T15:30:57.216Z,19.88
2023-06-17T15:33:37.585Z,19.99
2023-06-17T15:36:18.000Z,19.64
2023-06-17T15:39:20.987Z,20.57
2023-06-17T15:42:01.632Z,20.33
2023-06-17T15:44:41.973Z,20.43
2023-06-17T15:47:22.487Z,19.87
2023-06-17T15:50:04.170Z,20.35
2023-06-17T15:52:44.479Z,20.73
2023-06-17T15:55:24.817Z,20.47
2023-06-17T15:58:05.584Z,21.01
2023-06-17T16:00:46.009Z,20.67
2023-06-17T16:03:31.418Z,20.37
2023-06-17T16:06:12.078Z,21.04
2023-06-17T16:08:54.259Z,20.97
2023-06-17T16:11:34.816Z,20.70
2023-06-17T16:14:15.274Z,21.01
2023-06-17T16:16:55.674Z,21.34
2023-06-17T16:19:37.257Z,21.28
2023-06-17T16:22:17.613Z,21.00
2023-06-17T16:24:57.842Z,20.99
2023-06-17T16:27:38.119Z,21.74
2023-06-17T16:30:19.935Z,21.89
2023-06-17T16:33:01.879Z,21.87
2023-06-17T16:35:42.134Z,21.98
2023-06-17T16:38:22.826Z,21.95
2023-06-17T16:41:03.411Z,22.48
2023-06-17T16:43:44.166Z,22.12
2023-06-17T16:46:24.654Z,22.63
2023-06-17T16:49:05.051Z,22.36
2023-06-17T16:51:45.640Z,22.62
2023-06-17T16:54:26.111Z,23.02
2023-06-17T16:57:06.827Z,22.86
2023-06-17T16:59:48.115Z,22.71
2023-06-17T17:02:29.223Z,22.67
2023-06-17T17:05:09.654Z,23.32
2023-06-17T17:07:50.449Z,23.37
2023-06-17T17:10:31.014Z,23.19
2023-06-17T17:13:12.351Z,22.88
2023-06-17T17:15:53.057Z,23.17
2023-06-17T17:18:36.586Z,23.07
2023-06-17T17:21:20.644Z,23.12
2023-06-17T17:24:04.075Z,23.79
2023-06-17T17:26:46.104Z,23.84
2023-06-17T17:29:26.960Z,23.93
2023-06-17T17:32:07.938Z,24.21
2023-06-17T17:34:48.398Z,24.44
2023-06-17T17:37:28.704Z,24.15
2023-06-17T17:40:09.744Z,24.61
2023-06-17T17:42:50.453Z,24.57
2023-06-17T17:45:30.800Z,24.95
2023-06-17T17:48:11.277Z,24.95
2023-06-17T17:50:51.570Z,24.49
2023-06-17T17:53:32.052Z,25.00
2023-06-17T17:56:12.186Z,25.06
2023-06-17T17:58:52.484Z,25.21
2023-06-17T18:01:32.749Z,25.51
2023-06-17T18:04:13.185Z,25.56
2023-06-17T18:06:53.442Z,25.85
2023-06-17T18:09:34.019Z,25.72
2023-06-17T18:12:14.163Z,25.83
2023-06-17T18:14:54.498Z,25.73
2023-06-17T18:17:34.727Z,25.50
2023-06-17T18:20:15.141Z,25.81
2023-06-17T18:22:55.897Z,25.72
2023-06-17T18:25:36.608Z,26.23
2023-06-17T18:28:17.193Z,26.09
2023-06-17T18:30:57.517Z,26.13
2023-06-17T18:33:37.886Z,26.19
2023-06-17T18:36:18.423Z,26.06
2023-06-17T18:38:58.815Z,26.47
2023-06-17T18:41:43.039Z,26.43
2023-06-17T18:44:23.390Z,26.34
2023-06-17T18:47:04.280Z,26.43
2023-06-17T18:49:44.698Z,26.63
2023-06-17T18:52:24.845Z,27.03
2023-06-17T18:55:05.845Z,27.16
2023-06-17T18:57:46.559Z,27.26
2023-06-17T19:00:28.845Z,27.25
2023-06-17T19:03:09.265Z,27.34
2023-06-17T19:05:52.761Z,27.27
2023-06-17T19:08:33.407Z,27.47
2023-06-17T19:11:16.240Z,27.82
2023-06-17T19:13:56.899Z,27.55
2023-06-17T19:16:37.244Z,27.93
2023-06-17T19:19:17.621Z,28.89
2023-06-17T19:21:58.017Z,29.00
2023-06-17T19:24:38.326Z,29.57
2023-06-17T19:27:18.589Z,29.88
2023-06-17T19:30:01.128Z,30.35
2023-06-17T19:32:41.398Z,30.66
2023-06-17T19:35:21.626Z,31.08
2023-06-17T19:38:02.606Z,31.86
2023-06-17T19:40:43.284Z,31.78
2023-06-17T19:43:24.251Z,31.56
2023-06-17T19:46:04.952Z,32.03
2023-06-17T19:48:45.660Z,31.96
2023-06-17T19:51:26.123Z,32.47
2023-06-17T19:54:06.365Z,32.62
2023-06-17T19:56:46.578Z,33.48
2023-06-17T19:59:27.020Z,33.93
2023-06-17T20:02:07.719Z,33.97
2023-06-17T20:04:48.293Z,34.86
2023-06-17T20:07:28.444Z,35.04
2023-06-17T20:10:09.314Z,35.11
2023-06-17T20:12:49.496Z,35.22
2023-06-17T20:15:30.451Z,35.64
2023-06-17T20:18:11.220Z,36.02
2023-06-17T20:20:51.555Z,36.17
2023-06-17T20:23:31.820Z,36.19
2023-06-17T20:26:12.501Z,36.23
2023-06-17T20:28:54.196Z,36.32
2023-06-17T20:31:34.422Z,36.68
2023-06-17T20:34:14.606Z,36.82
2023-06-17T20:36:54.885Z,37.11
2023-06-17T20:39:35.227Z,37.03
2023-06-17T20:42:15.707Z,38.04
2023-06-17T20:44:56.682Z,38.24
2023-06-17T20:47:37.163Z,38.28
2023-06-17T20:50:17.474Z,38.25
2023-06-17T20:52:58.188Z,38.17
2023-06-17T20:55:38.396Z,38.12
2023-06-17T20:58:18.835Z,38.77
2023-06-17T21:00:59.310Z,38.16
2023-06-17T21:03:39.610Z,38.05
2023-06-17T21:06:19.968Z,38.64
2023-06-17T21:09:00.259Z,38.54
2023-06-17T21:11:41.003Z,38.56
2023-06-17T21:14:21.248Z,38.21
2023-06-17T21:17:01.825Z,38.32
2023-06-17T21:19:42.288Z,38.88
2023-06-17T21:22:22.468Z,38.96
2023-06-17T21:25:02.555Z,39.22
2023-06-17T21:27:42.809Z,38.93
2023-06-17T21:30:23.391Z,39.30
2023-06-17T21:33:04.013Z,39.46
2023-06-17T21:35:44.175Z,39.50
2023-06-17T21:38:24.699Z,39.90
2023-06-17T21:41:04.990Z,39.77
2023-06-17T21:43:45.225Z,40.12
2023-06-17T21:46:32.114Z,39.95
2023-06-17T21:49:12.514Z,40.04
2023-06-17T21:51:52.769Z,40.70
2023-06-17T21:54:33.480Z,40.23
2023-06-17T21:57:14.002Z,40.31
2023-06-17T21:59:54.193Z,40.43
2023-06-17T22:02:34.474Z,40.16
2023-06-17T22:05:14.859Z,40.35
2023-06-17T22:07:55.041Z,40.51
2023-06-17T22:10:35.355Z,40.64
2023-06-17T22:13:15.889Z,40.59
2023-06-17T22:15:56.955Z,41.04
2023-06-17T22:18:37.097Z,40.94
2023-06-17T22:21:17.385Z,41.04
2023-06-17T22:23:57.764Z,41.00
2023-06-17T22:26:39.627Z,40.99
2023-06-17T22:29:19.943Z,41.29
2023-06-17T22:32:00.310Z,41.34
2023-06-17T22:34:40.700Z,41.21
2023-06-17T22:37:21.035Z,41.45
2023-06-17T22:40:01.241Z,41.20
2023-06-17T22:42:41.664Z,40.83
2023-06-17T22:45:22.144Z,41.79
2023-06-17T22:48:03.975Z,41.56
2023-06-17T22:50:44.194Z,41.66
2023-06-17T22:53:24.791Z,41.64
2023-06-17T22:56:05.905Z,41.79
2023-06-17T22:58:46.538Z,41.46
2023-06-17T23:01:27.291Z,41.83
2023-06-17T23:04:07.439Z,42.18
2023-06-17T23:06:47.697Z,41.97
2023-06-17T23:09:28.038Z,41.99
2023-06-17T23:12:09.268Z,42.13
2023-06-17T23:14:49.745Z,42.32
2023-06-17T23:17:30.128Z,42.23
2023-06-17T23:20:10.686Z,42.55
2023-06-17T23:22:51.730Z,42.47
2023-06-17T23:25:32.891Z,42.39
2023-06-17T23:28:13.404Z,42.38
2023-06-17T23:30:54.160Z,42.70
2023-06-17T23:33:35.527Z,42.75
2023-06-17T23:36:15.652Z,42.95
2023-06-17T23:38:58.415Z,42.83
2023-06-17T23:41:39.024Z,43.05
2023-06-17T23:44:20.387Z,43.35
2023-06-17T23:47:04.469Z,43.53
2023-06-17T23:49:45.962Z,43.11
2023-06-17T23:52:26.309Z,43.24
2023-06-17T23:55:07.286Z,43.28
2023-06-17T23:57:47.882Z,43.65
